sensor_id;sensor_type;location;lat;lon;timestamp;pressure;altitude;pressure_sealevel;temperature;humidity
40490;BME280;26196;52.302;10.572;2024-01-30T00:02:18;101926.94;;;11.16;49.86
40490;BME280;26196;52.302;10.572;2024-01-30T00:06:20;101919.94;;;11.17;50.22
40490;BME280;26196;52.302;10.572;2024-01-30T00:10:22;101844.25;;;10.76;50.04
40490;BME280;26196;52.302;10.572;2024-01-30T00:14:24;101844.28;;;10.74;49.94
40490;BME280;26196;52.302;10.572;2024-01-30T00:18:25;101867.75;;;10.86;49.91
40490;BME280;26196;52.302;10.572;2024-01-30T00:22:27;101920.81;;;11.13;50.18
40490;BME280;26196;52.302;10.572;2024-01-30T00:26:31;101909.50;;;11.11;49.77
40490;BME280;26196;52.302;10.572;2024-01-30T00:30:33;101855.53;;;10.85;49.85
40490;BME280;26196;52.302;10.572;2024-01-30T00:34:34;101895.50;;;11.10;49.80
40490;BME280;26196;52.302;10.572;2024-01-30T00:38:37;101791.19;;;10.47;49.85
40490;BME280;26196;52.302;10.572;2024-01-30T00:42:38;101837.25;;;10.76;49.80
40490;BME280;26196;52.302;10.572;2024-01-30T00:46:40;101876.41;;;10.96;49.46
40490;BME280;26196;52.302;10.572;2024-01-30T00:50:41;101833.81;;;10.68;49.95
40490;BME280;26196;52.302;10.572;2024-01-30T00:54:43;101834.69;;;10.70;49.57
40490;BME280;26196;52.302;10.572;2024-01-30T00:58:45;101891.25;;;11.00;49.77
40490;BME280;26196;52.302;10.572;2024-01-30T01:02:47;101847.78;;;10.71;49.64
40490;BME280;26196;52.302;10.572;2024-01-30T01:06:48;101908.69;;;11.01;49.70
40490;BME280;26196;52.302;10.572;2024-01-30T01:10:50;101845.19;;;10.65;49.66
40490;BME280;26196;52.302;10.572;2024-01-30T01:14:52;101899.16;;;10.92;49.52
40490;BME280;26196;52.302;10.572;2024-01-30T01:18:53;101903.47;;;10.98;49.61
40490;BME280;26196;52.302;10.572;2024-01-30T01:22:55;101858.25;;;10.71;49.58
40490;BME280;26196;52.302;10.572;2024-01-30T01:26:58;101906.13;;;10.95;49.78
40490;BME280;26196;52.302;10.572;2024-01-30T01:31:00;101901.75;;;10.94;49.54
40490;BME280;26196;52.302;10.572;2024-01-30T01:35:06;101873.09;;;10.74;49.76
40490;BME280;26196;52.302;10.572;2024-01-30T01:39:08;101846.09;;;10.61;49.50
40490;BME280;26196;52.302;10.572;2024-01-30T01:43:10;101900.88;;;10.95;49.57
40490;BME280;26196;52.302;10.572;2024-01-30T01:47:11;101886.94;;;10.87;49.80
40490;BME280;26196;52.302;10.572;2024-01-30T01:51:13;101840.84;;;10.61;49.62
40490;BME280;26196;52.302;10.572;2024-01-30T01:55:15;101820.81;;;10.52;49.45
40490;BME280;26196;52.302;10.572;2024-01-30T01:59:19;101825.19;;;10.54;49.36
40490;BME280;26196;52.302;10.572;2024-01-30T02:03:21;101890.47;;;10.87;49.55
40490;BME280;26196;52.302;10.572;2024-01-30T02:07:24;101823.47;;;10.51;49.15
40490;BME280;26196;52.302;10.572;2024-01-30T02:11:25;101884.31;;;10.87;49.40
40490;BME280;26196;52.302;10.572;2024-01-30T02:15:28;101847.78;;;10.71;49.26
40490;BME280;26196;52.302;10.572;2024-01-30T02:19:30;101811.25;;;10.47;49.73
40490;BME280;26196;52.302;10.572;2024-01-30T02:23:33;101820.78;;;10.57;49.23
40490;BME280;26196;52.302;10.572;2024-01-30T02:27:35;101843.41;;;10.72;49.49
40490;BME280;26196;52.302;10.572;2024-01-30T02:31:37;101856.44;;;10.77;49.51
40490;BME280;26196;52.302;10.572;2024-01-30T02:35:39;101813.84;;;10.55;49.50
40490;BME280;26196;52.302;10.572;2024-01-30T02:39:40;101781.69;;;10.33;49.35
40490;BME280;26196;52.302;10.572;2024-01-30T02:43:42;101826.00;;;10.60;48.98
40490;BME280;26196;52.302;10.572;2024-01-30T02:47:43;101846.84;;;10.80;49.19
40490;BME280;26196;52.302;10.572;2024-01-30T02:51:45;101852.09;;;10.77;49.29
40490;BME280;26196;52.302;10.572;2024-01-30T02:55:46;101813.88;;;10.48;49.31
40490;BME280;26196;52.302;10.572;2024-01-30T02:59:48;101799.91;;;10.46;49.33
40490;BME280;26196;52.302;10.572;2024-01-30T03:03:50;101851.25;;;10.75;49.66
40490;BME280;26196;52.302;10.572;2024-01-30T03:07:51;101856.44;;;10.77;49.24
40490;BME280;26196;52.302;10.572;2024-01-30T03:11:53;101838.19;;;10.66;49.33
40490;BME280;26196;52.302;10.572;2024-01-30T03:15:54;101843.38;;;10.75;49.26
40490;BME280;26196;52.302;10.572;2024-01-30T03:19:56;101842.53;;;10.75;49.12
40490;BME280;26196;52.302;10.572;2024-01-30T03:23:58;101772.09;;;10.33;49.15
40490;BME280;26196;52.302;10.572;2024-01-30T03:27:59;101818.19;;;10.57;49.31
40490;BME280;26196;52.302;10.572;2024-01-30T03:32:01;101791.22;;;10.41;48.93
40490;BME280;26196;52.302;10.572;2024-01-30T03:36:04;101825.97;;;10.65;48.90
40490;BME280;26196;52.302;10.572;2024-01-30T03:40:06;101813.81;;;10.58;49.19
40490;BME280;26196;52.302;10.572;2024-01-30T03:44:08;101818.19;;;10.57;49.17
40490;BME280;26196;52.302;10.572;2024-01-30T03:48:09;101826.81;;;10.70;48.83
40490;BME280;26196;52.302;10.572;2024-01-30T03:52:11;101818.13;;;10.63;49.02
40490;BME280;26196;52.302;10.572;2024-01-30T03:56:12;101780.75;;;10.41;48.70
40490;BME280;26196;52.302;10.572;2024-01-30T04:00:15;101774.69;;;10.35;49.20
40490;BME280;26196;52.302;10.572;2024-01-30T04:04:20;101748.50;;;10.27;48.67
40490;BME280;26196;52.302;10.572;2024-01-30T04:08:22;101819.00;;;10.65;49.14
40490;BME280;26196;52.302;10.572;2024-01-30T04:12:24;101807.66;;;10.63;49.24
40490;BME280;26196;52.302;10.572;2024-01-30T04:16:25;101813.75;;;10.65;49.19
40490;BME280;26196;52.302;10.572;2024-01-30T04:20:27;101802.47;;;10.57;49.55
40490;BME280;26196;52.302;10.572;2024-01-30T04:24:29;101756.34;;;10.36;49.18
40490;BME280;26196;52.302;10.572;2024-01-30T04:28:30;101778.16;;;10.43;48.98
40490;BME280;26196;52.302;10.572;2024-01-30T04:32:32;101755.50;;;10.31;49.65
40490;BME280;26196;52.302;10.572;2024-01-30T04:36:34;101747.69;;;10.23;49.32
40490;BME280;26196;52.302;10.572;2024-01-30T04:40:35;101802.44;;;10.62;49.21
40490;BME280;26196;52.302;10.572;2024-01-30T04:44:37;101803.34;;;10.55;49.52
40490;BME280;26196;52.302;10.572;2024-01-30T04:48:38;101803.34;;;10.55;49.46
40490;BME280;26196;52.302;10.572;2024-01-30T04:52:40;101812.06;;;10.61;49.30
40490;BME280;26196;52.302;10.572;2024-01-30T04:56:41;101794.69;;;10.48;49.62
40490;BME280;26196;52.302;10.572;2024-01-30T05:00:43;101755.53;;;10.25;49.41
40490;BME280;26196;52.302;10.572;2024-01-30T05:04:45;101808.56;;;10.58;49.45
40490;BME280;26196;52.302;10.572;2024-01-30T05:08:46;101787.69;;;10.51;49.18
40490;BME280;26196;52.302;10.572;2024-01-30T05:12:48;101812.91;;;10.60;49.54
40490;BME280;26196;52.302;10.572;2024-01-30T05:16:50;101805.09;;;10.57;49.72
40490;BME280;26196;52.302;10.572;2024-01-30T05:20:51;101758.13;;;10.33;49.45
40490;BME280;26196;52.302;10.572;2024-01-30T05:24:52;101810.31;;;10.59;49.22
40490;BME280;26196;52.302;10.572;2024-01-30T05:28:54;101800.75;;;10.56;49.35
40490;BME280;26196;52.302;10.572;2024-01-30T05:32:56;101732.91;;;10.13;49.43
40490;BME280;26196;52.302;10.572;2024-01-30T05:36:57;101781.63;;;10.42;49.41
40490;BME280;26196;52.302;10.572;2024-01-30T05:40:59;101755.53;;;10.25;49.20
40490;BME280;26196;52.302;10.572;2024-01-30T05:45:00;101749.44;;;10.23;49.50
40490;BME280;26196;52.302;10.572;2024-01-30T05:49:02;101752.91;;;10.28;49.33
40490;BME280;26196;52.302;10.572;2024-01-30T05:53:03;101747.69;;;10.19;49.54
40490;BME280;26196;52.302;10.572;2024-01-30T05:57:05;101745.94;;;10.21;49.27
40490;BME280;26196;52.302;10.572;2024-01-30T06:01:07;101799.84;;;10.56;49.34
40490;BME280;26196;52.302;10.572;2024-01-30T06:05:10;101801.63;;;10.54;49.53
40490;BME280;26196;52.302;10.572;2024-01-30T06:09:11;101750.28;;;10.29;49.66
40490;BME280;26196;52.302;10.572;2024-01-30T06:13:14;101732.03;;;10.16;49.61
40490;BME280;26196;52.302;10.572;2024-01-30T06:17:16;101789.44;;;10.51;49.71
40490;BME280;26196;52.302;10.572;2024-01-30T06:21:18;101791.13;;;10.57;49.40
40490;BME280;26196;52.302;10.572;2024-01-30T06:25:19;101789.38;;;10.56;49.33
40490;BME280;26196;52.302;10.572;2024-01-30T06:29:21;101723.28;;;10.20;49.41
40490;BME280;26196;52.302;10.572;2024-01-30T06:33:23;101774.59;;;10.50;49.22
40490;BME280;26196;52.302;10.572;2024-01-30T06:37:24;101719.84;;;10.15;49.77
40490;BME280;26196;52.302;10.572;2024-01-30T06:41:26;101688.56;;;9.96;49.49
40490;BME280;26196;52.302;10.572;2024-01-30T06:45:28;101730.22;;;10.24;49.83
40490;BME280;26196;52.302;10.572;2024-01-30T06:49:29;101765.88;;;10.45;49.54
40490;BME280;26196;52.302;10.572;2024-01-30T06:53:31;101728.47;;;10.26;49.70
40490;BME280;26196;52.302;10.572;2024-01-30T06:57:32;101718.06;;;10.20;49.50
40490;BME280;26196;52.302;10.572;2024-01-30T07:01:34;101774.59;;;10.50;49.48
40490;BME280;26196;52.302;10.572;2024-01-30T07:05:35;101772.00;;;10.48;49.66
40490;BME280;26196;52.302;10.572;2024-01-30T07:09:37;101763.28;;;10.46;49.95
40490;BME280;26196;52.302;10.572;2024-01-30T07:13:38;101722.44;;;10.18;49.54
40490;BME280;26196;52.302;10.572;2024-01-30T07:17:40;101769.34;;;10.50;49.43
40490;BME280;26196;52.302;10.572;2024-01-30T07:21:42;101771.13;;;10.46;49.77
40490;BME280;26196;52.302;10.572;2024-01-30T07:25:44;101776.38;;;10.48;49.41
40490;BME280;26196;52.302;10.572;2024-01-30T07:29:50;101760.69;;;10.39;49.52
40490;BME280;26196;52.302;10.572;2024-01-30T07:33:51;101723.31;;;10.17;49.74
40490;BME280;26196;52.302;10.572;2024-01-30T07:37:53;101778.94;;;10.52;49.56
40490;BME280;26196;52.302;10.572;2024-01-30T07:41:54;101778.06;;;10.50;49.39
40490;BME280;26196;52.302;10.572;2024-01-30T07:45:56;101714.59;;;10.13;49.54
40490;BME280;26196;52.302;10.572;2024-01-30T07:49:57;101767.69;;;10.43;49.28
40490;BME280;26196;52.302;10.572;2024-01-30T07:53:59;101774.56;;;10.55;49.49
40490;BME280;26196;52.302;10.572;2024-01-30T07:58:01;101780.72;;;10.47;49.36
40490;BME280;26196;52.302;10.572;2024-01-30T08:02:03;101788.53;;;10.52;49.53
40490;BME280;26196;52.302;10.572;2024-01-30T08:06:05;101757.28;;;10.27;49.33
40490;BME280;26196;52.302;10.572;2024-01-30T08:10:08;101728.53;;;10.17;49.78
40490;BME280;26196;52.302;10.572;2024-01-30T08:14:10;101779.81;;;10.50;49.70
40490;BME280;26196;52.302;10.572;2024-01-30T08:18:12;101775.47;;;10.47;49.49
40490;BME280;26196;52.302;10.572;2024-01-30T08:22:13;101769.41;;;10.42;49.44
40490;BME280;26196;52.302;10.572;2024-01-30T08:26:15;101772.00;;;10.48;49.60
40490;BME280;26196;52.302;10.572;2024-01-30T08:30:17;101731.09;;;10.26;49.61
40490;BME280;26196;52.302;10.572;2024-01-30T08:34:18;101742.44;;;10.33;49.46
40490;BME280;26196;52.302;10.572;2024-01-30T08:38:20;101716.31;;;10.16;49.46
40490;BME280;26196;52.302;10.572;2024-01-30T08:42:22;101777.19;;;10.50;49.92
40490;BME280;26196;52.302;10.572;2024-01-30T08:46:24;101769.41;;;10.44;49.82
40490;BME280;26196;52.302;10.572;2024-01-30T08:50:26;101726.75;;;10.25;49.54
40490;BME280;26196;52.302;10.572;2024-01-30T08:54:28;101712.84;;;10.17;49.54
40490;BME280;26196;52.302;10.572;2024-01-30T08:58:29;101771.06;;;10.52;49.45
40490;BME280;26196;52.302;10.572;2024-01-30T09:02:32;101730.22;;;10.33;49.70
40490;BME280;26196;52.302;10.572;2024-01-30T09:06:34;101764.91;;;10.58;49.91
40490;BME280;26196;52.302;10.572;2024-01-30T09:10:36;101702.28;;;10.32;49.95
40490;BME280;26196;52.302;10.572;2024-01-30T09:14:39;101707.44;;;10.44;50.33
40490;BME280;26196;52.302;10.572;2024-01-30T09:18:42;101754.31;;;10.78;50.62
40490;BME280;26196;52.302;10.572;2024-01-30T09:22:43;101696.88;;;10.55;50.48
40490;BME280;26196;52.302;10.572;2024-01-30T09:26:45;101697.81;;;10.51;50.67
40490;BME280;26196;52.302;10.572;2024-01-30T09:30:46;101744.72;;;10.76;50.51
40490;BME280;26196;52.302;10.572;2024-01-30T09:34:48;101699.50;;;10.57;50.69
40490;BME280;26196;52.302;10.572;2024-01-30T09:38:50;101743.84;;;10.78;50.48
40490;BME280;26196;52.302;10.572;2024-01-30T09:42:51;101703.91;;;10.51;50.73
40490;BME280;26196;52.302;10.572;2024-01-30T09:46:53;101702.16;;;10.50;50.83
40490;BME280;26196;52.302;10.572;2024-01-30T09:50:56;101722.19;;;10.56;50.56
40490;BME280;26196;52.302;10.572;2024-01-30T09:55:00;101710.00;;;10.52;50.89
40490;BME280;26196;52.302;10.572;2024-01-30T09:59:02;101761.25;;;10.84;50.64
40490;BME280;26196;52.302;10.572;2024-01-30T10:03:04;101745.59;;;10.76;50.75
40490;BME280;26196;52.302;10.572;2024-01-30T10:07:07;101709.13;;;10.56;50.75
40490;BME280;26196;52.302;10.572;2024-01-30T10:11:10;101697.78;;;10.54;50.63
40490;BME280;26196;52.302;10.572;2024-01-30T10:15:12;101722.06;;;10.75;50.75
40490;BME280;26196;52.302;10.572;2024-01-30T10:19:15;101735.94;;;10.81;51.16
40490;BME280;26196;52.302;10.572;2024-01-30T10:23:17;101678.59;;;10.54;50.76
40490;BME280;26196;52.302;10.572;2024-01-30T10:27:25;101713.31;;;10.77;51.11
40490;BME280;26196;52.302;10.572;2024-01-30T10:31:28;101686.31;;;10.66;51.11
40490;BME280;26196;52.302;10.572;2024-01-30T10:35:29;101683.75;;;10.61;50.99
40490;BME280;26196;52.302;10.572;2024-01-30T10:39:31;101676.72;;;10.63;51.52
40490;BME280;26196;52.302;10.572;2024-01-30T10:43:35;101724.50;;;10.93;51.27
40490;BME280;26196;52.302;10.572;2024-01-30T10:47:44;101739.28;;;11.00;51.64
40490;BME280;26196;52.302;10.572;2024-01-30T10:51:50;101729.69;;;11.01;51.37
40490;BME280;26196;52.302;10.572;2024-01-30T10:55:54;101589.00;;;10.18;51.28
40490;BME280;26196;52.302;10.572;2024-01-30T10:59:57;101672.25;;;10.78;51.67
40490;BME280;26196;52.302;10.572;2024-01-30T11:03:59;101685.25;;;10.88;51.88
40490;BME280;26196;52.302;10.572;2024-01-30T11:08:13;101674.84;;;10.82;51.90
40490;BME280;26196;52.302;10.572;2024-01-30T11:12:15;101656.50;;;10.79;51.81
40490;BME280;26196;52.302;10.572;2024-01-30T11:16:17;101656.50;;;10.81;51.90
40490;BME280;26196;52.302;10.572;2024-01-30T11:20:25;101659.94;;;10.87;52.07
40490;BME280;26196;52.302;10.572;2024-01-30T11:24:27;101663.28;;;11.02;51.87
40490;BME280;26196;52.302;10.572;2024-01-30T11:28:33;101691.03;;;11.18;51.76
40490;BME280;26196;52.302;10.572;2024-01-30T11:32:36;101707.50;;;11.31;52.10
40490;BME280;26196;52.302;10.572;2024-01-30T11:36:38;101700.59;;;11.27;51.93
40490;BME280;26196;52.302;10.572;2024-01-30T11:40:45;101677.03;;;11.22;52.43
40490;BME280;26196;52.302;10.572;2024-01-30T11:44:47;101690.06;;;11.30;52.36
40490;BME280;26196;52.302;10.572;2024-01-30T11:48:50;101695.25;;;11.31;52.53
40490;BME280;26196;52.302;10.572;2024-01-30T11:52:54;101688.38;;;11.24;52.60
40490;BME280;26196;52.302;10.572;2024-01-30T11:56:55;101663.94;;;11.22;52.55
40490;BME280;26196;52.302;10.572;2024-01-30T12:00:57;101652.63;;;11.17;52.51
40490;BME280;26196;52.302;10.572;2024-01-30T12:05:04;101622.22;;;11.04;52.79
40490;BME280;26196;52.302;10.572;2024-01-30T12:09:06;101629.19;;;11.05;52.57
40490;BME280;26196;52.302;10.572;2024-01-30T12:13:11;101635.19;;;11.13;52.67
40490;BME280;26196;52.302;10.572;2024-01-30T12:17:24;101643.91;;;11.16;53.30
40490;BME280;26196;52.302;10.572;2024-01-30T12:21:26;101671.66;;;11.34;53.62
40490;BME280;26196;52.302;10.572;2024-01-30T12:25:27;101625.63;;;11.13;53.54
40490;BME280;26196;52.302;10.572;2024-01-30T12:29:32;101658.53;;;11.36;53.43
40490;BME280;26196;52.302;10.572;2024-01-30T12:33:38;101624.72;;;11.16;53.62
40490;BME280;26196;52.302;10.572;2024-01-30T12:37:41;101656.75;;;11.39;53.64
40490;BME280;26196;52.302;10.572;2024-01-30T12:41:44;101648.00;;;11.39;53.80
40490;BME280;26196;52.302;10.572;2024-01-30T12:45:46;101616.66;;;11.30;53.71
40490;BME280;26196;52.302;10.572;2024-01-30T12:49:48;101666.16;;;11.54;53.35
40490;BME280;26196;52.302;10.572;2024-01-30T12:53:50;101659.09;;;11.59;53.67
40490;BME280;26196;52.302;10.572;2024-01-30T12:57:51;101607.84;;;11.37;54.61
40490;BME280;26196;52.302;10.572;2024-01-30T13:01:53;101620.88;;;11.43;54.92
40490;BME280;26196;52.302;10.572;2024-01-30T13:05:55;101607.91;;;11.32;56.32
40490;BME280;26196;52.302;10.572;2024-01-30T13:09:57;101592.41;;;11.14;56.27
40490;BME280;26196;52.302;10.572;2024-01-30T13:14:04;101633.16;;;11.39;57.53
40490;BME280;26196;52.302;10.572;2024-01-30T13:18:06;101617.50;;;11.33;57.16
40490;BME280;26196;52.302;10.572;2024-01-30T13:22:07;101685.22;;;11.67;57.77
40490;BME280;26196;52.302;10.572;2024-01-30T13:26:09;101663.63;;;11.47;57.73
40490;BME280;26196;52.302;10.572;2024-01-30T13:30:11;101648.00;;;11.39;57.04
40490;BME280;26196;52.302;10.572;2024-01-30T13:34:12;101641.84;;;11.43;57.94
40490;BME280;26196;52.302;10.572;2024-01-30T13:38:15;101691.34;;;11.68;58.24
40490;BME280;26196;52.302;10.572;2024-01-30T13:42:17;101693.09;;;11.69;58.40
40490;BME280;26196;52.302;10.572;2024-01-30T13:46:18;101693.03;;;11.73;58.62
40490;BME280;26196;52.302;10.572;2024-01-30T13:50:20;101692.19;;;11.71;58.95
40490;BME280;26196;52.302;10.572;2024-01-30T13:54:22;101694.75;;;11.74;58.56
40490;BME280;26196;52.302;10.572;2024-01-30T13:58:24;101686.06;;;11.71;58.66
40490;BME280;26196;52.302;10.572;2024-01-30T14:02:25;101648.75;;;11.50;58.44
40490;BME280;26196;52.302;10.572;2024-01-30T14:06:27;101698.19;;;11.79;59.52
40490;BME280;26196;52.302;10.572;2024-01-30T14:10:29;101708.63;;;11.84;59.42
40490;BME280;26196;52.302;10.572;2024-01-30T14:14:30;101680.78;;;11.72;59.34
40490;BME280;26196;52.302;10.572;2024-01-30T14:18:32;101653.94;;;11.55;59.95
40490;BME280;26196;52.302;10.572;2024-01-30T14:22:34;101721.69;;;11.92;59.65
40490;BME280;26196;52.302;10.572;2024-01-30T14:26:36;101653.03;;;11.56;59.64
40490;BME280;26196;52.302;10.572;2024-01-30T14:30:38;101658.22;;;11.60;60.11
40490;BME280;26196;52.302;10.572;2024-01-30T14:34:39;101648.59;;;11.61;59.31
40490;BME280;26196;52.302;10.572;2024-01-30T14:38:41;101694.59;;;11.90;59.81
40490;BME280;26196;52.302;10.572;2024-01-30T14:42:44;101698.88;;;11.97;59.81
40490;BME280;26196;52.302;10.572;2024-01-30T14:46:46;101699.69;;;11.99;60.06
40490;BME280;26196;52.302;10.572;2024-01-30T14:50:47;101692.78;;;11.93;60.04
40490;BME280;26196;52.302;10.572;2024-01-30T14:54:49;101711.00;;;12.04;59.73
40490;BME280;26196;52.302;10.572;2024-01-30T14:58:51;101705.72;;;12.07;59.64
40490;BME280;26196;52.302;10.572;2024-01-30T15:02:53;101709.22;;;12.06;60.14
40490;BME280;26196;52.302;10.572;2024-01-30T15:06:55;101665.81;;;11.82;60.16
40490;BME280;26196;52.302;10.572;2024-01-30T15:10:58;101691.81;;;12.02;60.67
40490;BME280;26196;52.302;10.572;2024-01-30T15:15:00;101560.81;;;11.25;60.29
40490;BME280;26196;52.302;10.572;2024-01-30T15:19:02;101604.06;;;11.58;60.62
40490;BME280;26196;52.302;10.572;2024-01-30T15:23:06;101714.31;;;12.18;60.30
40490;BME280;26196;52.302;10.572;2024-01-30T15:27:08;101664.78;;;11.95;60.43
40490;BME280;26196;52.302;10.572;2024-01-30T15:31:09;101686.50;;;12.05;60.22
40490;BME280;26196;52.302;10.572;2024-01-30T15:35:11;101714.25;;;12.23;59.95
40490;BME280;26196;52.302;10.572;2024-01-30T15:39:12;101646.50;;;11.88;60.17
40490;BME280;26196;52.302;10.572;2024-01-30T15:43:16;101715.06;;;12.28;60.69
40490;BME280;26196;52.302;10.572;2024-01-30T15:47:18;101703.84;;;12.15;61.09
40490;BME280;26196;52.302;10.572;2024-01-30T15:51:19;101724.66;;;12.27;59.99
40490;BME280;26196;52.302;10.572;2024-01-30T15:55:21;101736.81;;;12.35;60.44
40490;BME280;26196;52.302;10.572;2024-01-30T15:59:22;101729.88;;;12.31;60.39
40490;BME280;26196;52.302;10.572;2024-01-30T16:03:24;101735.94;;;12.34;59.86
40490;BME280;26196;52.302;10.572;2024-01-30T16:07:29;101732.41;;;12.37;58.73
40490;BME280;26196;52.302;10.572;2024-01-30T16:11:32;101693.41;;;12.12;60.60
40490;BME280;26196;52.302;10.572;2024-01-30T16:15:34;101684.69;;;12.09;60.18
40490;BME280;26196;52.302;10.572;2024-01-30T16:19:36;101735.03;;;12.37;60.48
40490;BME280;26196;52.302;10.572;2024-01-30T16:23:37;101701.13;;;12.20;60.58
40490;BME280;26196;52.302;10.572;2024-01-30T16:27:39;101683.03;;;12.03;59.68
40490;BME280;26196;52.302;10.572;2024-01-30T16:31:41;101708.22;;;12.16;59.98
40490;BME280;26196;52.302;10.572;2024-01-30T16:35:42;101760.28;;;12.45;59.16
40490;BME280;26196;52.302;10.572;2024-01-30T16:39:48;101756.78;;;12.45;59.98
40490;BME280;26196;52.302;10.572;2024-01-30T16:43:49;101761.19;;;12.43;60.26
40490;BME280;26196;52.302;10.572;2024-01-30T16:47:51;101709.16;;;12.12;60.16
40490;BME280;26196;52.302;10.572;2024-01-30T16:51:52;101711.75;;;12.14;60.08
40490;BME280;26196;52.302;10.572;2024-01-30T16:55:54;101702.25;;;12.03;60.01
40490;BME280;26196;52.302;10.572;2024-01-30T16:59:55;101776.09;;;12.42;59.72
40490;BME280;26196;52.302;10.572;2024-01-30T17:03:57;101708.31;;;12.10;59.77
40490;BME280;26196;52.302;10.572;2024-01-30T17:07:59;101725.66;;;12.20;59.95
40490;BME280;26196;52.302;10.572;2024-01-30T17:12:01;101742.22;;;12.25;59.48
40490;BME280;26196;52.302;10.572;2024-01-30T17:16:04;101758.63;;;12.40;59.81
40490;BME280;26196;52.302;10.572;2024-01-30T17:20:07;101771.63;;;12.49;59.98
40490;BME280;26196;52.302;10.572;2024-01-30T17:24:09;101787.34;;;12.51;59.47
40490;BME280;26196;52.302;10.572;2024-01-30T17:28:12;101723.97;;;12.16;60.83
40490;BME280;26196;52.302;10.572;2024-01-30T17:32:14;101712.66;;;12.13;60.14
40490;BME280;26196;52.302;10.572;2024-01-30T17:36:16;101727.50;;;12.14;60.52
40490;BME280;26196;52.302;10.572;2024-01-30T17:40:17;101794.25;;;12.56;59.98
40490;BME280;26196;52.302;10.572;2024-01-30T17:44:20;101781.28;;;12.47;59.66
40490;BME280;26196;52.302;10.572;2024-01-30T17:48:22;101749.13;;;12.30;60.01
40490;BME280;26196;52.302;10.572;2024-01-30T17:52:24;101776.94;;;12.43;60.34
40490;BME280;26196;52.302;10.572;2024-01-30T17:56:25;101794.25;;;12.58;60.07
40490;BME280;26196;52.302;10.572;2024-01-30T18:00:27;101785.47;;;12.59;59.63
40490;BME280;26196;52.302;10.572;2024-01-30T18:04:29;101744.69;;;12.35;59.88
40490;BME280;26196;52.302;10.572;2024-01-30T18:08:34;101726.41;;;12.29;59.75
40490;BME280;26196;52.302;10.572;2024-01-30T18:12:35;101781.09;;;12.59;59.92
40490;BME280;26196;52.302;10.572;2024-01-30T18:16:37;101776.78;;;12.54;60.11
40490;BME280;26196;52.302;10.572;2024-01-30T18:20:39;101795.00;;;12.66;59.75
40490;BME280;26196;52.302;10.572;2024-01-30T18:24:41;101760.28;;;12.47;59.55
40490;BME280;26196;52.302;10.572;2024-01-30T18:28:43;101787.19;;;12.61;59.73
40490;BME280;26196;52.302;10.572;2024-01-30T18:32:45;101791.50;;;12.67;59.77
40490;BME280;26196;52.302;10.572;2024-01-30T18:36:47;101781.91;;;12.63;59.46
40490;BME280;26196;52.302;10.572;2024-01-30T18:40:49;101780.16;;;12.63;60.05
40490;BME280;26196;52.302;10.572;2024-01-30T18:44:50;101748.06;;;12.44;60.08
40490;BME280;26196;52.302;10.572;2024-01-30T18:48:52;101735.03;;;12.37;59.89
40490;BME280;26196;52.302;10.572;2024-01-30T18:52:54;101780.16;;;12.63;60.08
40490;BME280;26196;52.302;10.572;2024-01-30T18:56:55;101732.41;;;12.38;60.06
40490;BME280;26196;52.302;10.572;2024-01-30T19:00:57;101800.13;;;12.72;59.59
40490;BME280;26196;52.302;10.572;2024-01-30T19:04:59;101754.22;;;12.42;59.46
40490;BME280;26196;52.302;10.572;2024-01-30T19:09:01;101751.63;;;12.39;59.85
40490;BME280;26196;52.302;10.572;2024-01-30T19:13:03;101772.50;;;12.48;59.83
40490;BME280;26196;52.302;10.572;2024-01-30T19:17:06;101754.22;;;12.42;60.26
40490;BME280;26196;52.302;10.572;2024-01-30T19:21:08;101820.25;;;12.75;59.81
40490;BME280;26196;52.302;10.572;2024-01-30T19:25:10;101827.25;;;12.76;60.22
40490;BME280;26196;52.302;10.572;2024-01-30T19:29:11;101835.16;;;12.74;60.28
40490;BME280;26196;52.302;10.572;2024-01-30T19:33:13;101833.47;;;12.68;59.90
40490;BME280;26196;52.302;10.572;2024-01-30T19:37:14;101794.47;;;12.44;60.38
40490;BME280;26196;52.302;10.572;2024-01-30T19:41:16;101846.47;;;12.79;59.85
40490;BME280;26196;52.302;10.572;2024-01-30T19:45:17;101833.47;;;12.70;60.02
40490;BME280;26196;52.302;10.572;2024-01-30T19:49:20;101811.72;;;12.60;60.34
40490;BME280;26196;52.302;10.572;2024-01-30T19:53:22;101834.44;;;12.64;60.31
40490;BME280;26196;52.302;10.572;2024-01-30T19:57:24;101865.72;;;12.80;60.16
40490;BME280;26196;52.302;10.572;2024-01-30T20:01:26;101834.56;;;12.55;60.75
40490;BME280;26196;52.302;10.572;2024-01-30T20:05:27;101835.41;;;12.56;61.13
40490;BME280;26196;52.302;10.572;2024-01-30T20:09:29;101828.44;;;12.55;59.72
40490;BME280;26196;52.302;10.572;2024-01-30T20:13:31;101840.72;;;12.54;60.78
40490;BME280;26196;52.302;10.572;2024-01-30T20:17:33;101891.97;;;12.80;60.78
40490;BME280;26196;52.302;10.572;2024-01-30T20:21:35;101880.66;;;12.75;60.25
40490;BME280;26196;52.302;10.572;2024-01-30T20:25:37;101909.41;;;12.88;60.26
40490;BME280;26196;52.302;10.572;2024-01-30T20:29:38;101908.50;;;12.89;59.98
40490;BME280;26196;52.302;10.572;2024-01-30T20:33:40;101900.66;;;12.85;60.15
40490;BME280;26196;52.302;10.572;2024-01-30T20:37:42;101856.41;;;12.57;60.34
40490;BME280;26196;52.302;10.572;2024-01-30T20:41:43;101767.91;;;11.99;60.12
40490;BME280;26196;52.302;10.572;2024-01-30T20:45:46;101914.72;;;12.85;59.76
40490;BME280;26196;52.302;10.572;2024-01-30T20:49:47;101862.59;;;12.53;60.26